createdAt,value
2019-03-12T00:01:37.890Z,5.22
2019-03-12T00:04:08.872Z,5.30
2019-03-12T00:06:40.493Z,4.37
2019-03-12T00:09:12.030Z,5.67
2019-03-12T00:11:43.563Z,4.97
2019-03-12T00:14:15.032Z,4.90
2019-03-12T00:16:46.603Z,4.35
2019-03-12T00:19:18.376Z,5.03
2019-03-12T00:21:50.048Z,4.72
2019-03-12T00:24:21.030Z,4.55
2019-03-12T00:26:52.422Z,5.45
2019-03-12T00:29:23.639Z,5.30
2019-03-12T00:31:54.627Z,5.25
2019-03-12T00:34:25.906Z,4.62
2019-03-12T00:36:57.402Z,4.65
2019-03-12T00:39:28.954Z,4.25
2019-03-12T00:42:00.550Z,4.85
2019-03-12T00:44:31.549Z,4.62
2019-03-12T00:47:02.855Z,4.22
2019-03-12T00:49:34.115Z,4.00
2019-03-12T00:52:06.068Z,3.72
2019-03-12T00:54:37.704Z,3.90
2019-03-12T00:57:09.306Z,3.83
2019-03-12T00:59:40.798Z,3.62
2019-03-12T01:02:12.310Z,3.35
2019-03-12T01:04:43.861Z,3.42
2019-03-12T01:07:15.088Z,2.90
2019-03-12T01:09:46.399Z,3.50
2019-03-12T01:12:17.973Z,2.72
2019-03-12T01:14:49.211Z,2.83
2019-03-12T01:17:21.279Z,2.60
2019-03-12T01:19:52.319Z,2.85
2019-03-12T01:22:23.305Z,2.40
2019-03-12T01:24:54.698Z,2.60
2019-03-12T01:27:26.538Z,2.12
2019-03-12T01:29:58.135Z,2.00
2019-03-12T01:32:29.390Z,2.05
2019-03-12T01:35:00.679Z,2.22
2019-03-12T01:37:31.993Z,1.98
2019-03-12T01:40:03.241Z,2.05
2019-03-12T01:42:34.791Z,1.80
2019-03-12T01:45:07.204Z,1.98
2019-03-12T01:47:39.534Z,2.62
2019-03-12T01:50:12.288Z,2.27
2019-03-12T01:52:43.967Z,1.85
2019-03-12T01:55:15.118Z,1.95
2019-03-12T01:57:46.824Z,2.12
2019-03-12T02:00:18.761Z,2.58
2019-03-12T02:02:50.411Z,1.77
2019-03-12T02:05:22.005Z,2.02
2019-03-12T02:07:53.276Z,1.40
2019-03-12T02:10:24.591Z,2.08
2019-03-12T02:12:56.057Z,1.20
2019-03-12T02:15:27.738Z,1.20
2019-03-12T02:17:58.727Z,1.85
2019-03-12T02:20:30.330Z,1.40
2019-03-12T02:23:01.849Z,1.37
2019-03-12T02:25:33.324Z,1.40
2019-03-12T02:28:05.190Z,1.25
2019-03-12T02:30:36.849Z,1.50
2019-03-12T02:33:09.006Z,1.40
2019-03-12T02:35:40.345Z,1.70
2019-03-12T02:38:12.256Z,1.45
2019-03-12T02:40:44.082Z,1.80
2019-03-12T02:43:16.262Z,1.62
2019-03-12T02:45:47.432Z,1.30
2019-03-12T02:48:19.257Z,1.40
2019-03-12T02:50:50.888Z,1.50
2019-03-12T02:53:22.831Z,1.25
2019-03-12T02:55:54.376Z,1.20
2019-03-12T02:58:26.254Z,1.10
2019-03-12T03:00:57.629Z,1.17
2019-03-12T03:03:28.730Z,1.20
2019-03-12T03:06:16.379Z,1.15
2019-03-12T03:08:48.370Z,1.25
2019-03-12T03:11:20.518Z,1.17
2019-03-12T03:13:52.559Z,1.60
2019-03-12T03:16:24.829Z,1.80
2019-03-12T03:18:56.420Z,2.05
2019-03-12T03:21:28.268Z,1.40
2019-03-12T03:24:00.353Z,1.45
2019-03-12T03:26:32.883Z,1.35
2019-03-12T03:29:04.771Z,1.50
2019-03-12T03:31:36.290Z,1.30
2019-03-12T03:34:09.205Z,1.35
2019-03-12T03:36:40.730Z,1.10
2019-03-12T03:39:12.485Z,1.27
2019-03-12T03:41:44.174Z,1.20
2019-03-12T03:44:16.100Z,1.30
2019-03-12T03:46:47.607Z,1.20
2019-03-12T03:49:19.534Z,1.35
2019-03-12T03:51:50.844Z,1.00
2019-03-12T03:54:23.126Z,1.02
2019-03-12T03:56:54.783Z,1.60
2019-03-12T03:59:26.030Z,1.50
2019-03-12T04:01:57.579Z,1.25
2019-03-12T04:04:30.981Z,1.45
2019-03-12T04:07:02.736Z,1.77
2019-03-12T04:09:34.283Z,1.55
2019-03-12T04:12:06.057Z,1.10
2019-03-12T04:14:37.704Z,1.30
2019-03-12T04:17:09.597Z,1.25
2019-03-12T04:19:41.469Z,1.30
2019-03-12T04:22:13.604Z,1.20
2019-03-12T04:24:45.257Z,1.60
2019-03-12T04:27:16.674Z,1.22
2019-03-12T04:29:48.235Z,1.30
2019-03-12T04:32:19.863Z,1.50
2019-03-12T04:34:51.206Z,1.25
2019-03-12T04:37:22.819Z,1.27
2019-03-12T04:39:54.441Z,1.22
2019-03-12T04:42:26.232Z,1.27
2019-03-12T04:44:57.853Z,1.30
2019-03-12T04:47:29.631Z,1.20
2019-03-12T04:50:01.498Z,1.05
2019-03-12T04:52:33.686Z,1.52
2019-03-12T04:55:06.134Z,1.10
2019-03-12T04:57:37.760Z,1.10
2019-03-12T05:00:12.690Z,1.00
2019-03-12T05:02:46.225Z,1.30
2019-03-12T05:05:18.191Z,1.40
2019-03-12T05:07:51.064Z,1.67
2019-03-12T05:10:22.585Z,1.25
2019-03-12T05:12:54.442Z,1.40
2019-03-12T05:15:26.320Z,1.10
2019-03-12T05:17:58.317Z,1.30
2019-03-12T05:20:29.371Z,1.40
2019-03-12T05:23:00.987Z,1.40
2019-03-12T05:25:32.622Z,2.00
2019-03-12T05:28:04.816Z,2.25
2019-03-12T05:30:36.610Z,2.52
2019-03-12T05:33:07.878Z,1.87
2019-03-12T05:35:39.469Z,1.67
2019-03-12T05:38:10.813Z,1.57
2019-03-12T05:40:42.699Z,1.52
2019-03-12T05:43:14.287Z,1.60
2019-03-12T05:45:45.545Z,1.55
2019-03-12T05:48:17.443Z,1.25
2019-03-12T05:50:49.543Z,1.65
2019-03-12T05:53:21.465Z,1.20
2019-03-12T05:55:52.815Z,1.25
2019-03-12T05:58:23.809Z,0.98
2019-03-12T06:00:55.855Z,1.30
2019-03-12T06:03:27.731Z,1.30
2019-03-12T06:05:59.779Z,1.05
2019-03-12T06:08:31.856Z,1.60
2019-03-12T06:11:03.566Z,1.25
2019-03-12T06:13:35.230Z,1.60
2019-03-12T06:16:07.244Z,1.55
2019-03-12T06:18:39.265Z,1.40
2019-03-12T06:21:10.883Z,1.65
2019-03-12T06:23:42.757Z,1.62
2019-03-12T06:26:14.266Z,1.55
2019-03-12T06:28:46.534Z,2.12
2019-03-12T06:31:54.920Z,1.80
2019-03-12T06:34:34.979Z,1.52
2019-03-12T06:37:12.359Z,1.40
2019-03-12T06:39:55.710Z,1.87
2019-03-12T06:42:47.514Z,1.80
2019-03-12T06:45:37.863Z,2.20
2019-03-12T06:48:25.715Z,1.90
2019-03-12T06:51:06.207Z,1.95
2019-03-12T06:53:55.159Z,2.22
2019-03-12T06:56:43.514Z,2.40
2019-03-12T06:59:26.144Z,2.33
2019-03-12T07:02:28.775Z,2.13
2019-03-12T07:05:26.790Z,1.97
2019-03-12T07:08:23.153Z,2.23
2019-03-12T07:11:28.498Z,1.90
2019-03-12T07:14:07.574Z,2.30
2019-03-12T07:16:47.344Z,1.80
2019-03-12T07:19:39.792Z,1.83
2019-03-12T07:22:16.023Z,1.90
2019-03-12T07:24:56.013Z,1.97
2019-03-12T07:27:36.032Z,1.80
2019-03-12T07:30:23.870Z,2.80
2019-03-12T07:33:13.634Z,4.43
2019-03-12T07:35:58.793Z,10.63
2019-03-12T07:39:02.085Z,11.50
2019-03-12T07:41:51.285Z,3.00
2019-03-12T07:44:41.550Z,1.53
2019-03-12T07:47:41.871Z,2.60
2019-03-12T07:50:23.603Z,2.50
2019-03-12T07:53:14.087Z,1.80
2019-03-12T07:56:03.054Z,2.05
2019-03-12T07:58:53.213Z,2.20
2019-03-12T08:01:42.595Z,1.98
2019-03-12T08:04:31.793Z,1.87
2019-03-12T08:07:21.826Z,1.70
2019-03-12T08:10:11.923Z,1.82
2019-03-12T08:13:01.622Z,1.80
2019-03-12T08:15:51.822Z,1.67
2019-03-12T08:18:44.655Z,2.07
2019-03-12T08:21:29.009Z,1.57
2019-03-12T08:24:13.758Z,1.43
2019-03-12T08:26:50.455Z,1.40
2019-03-12T08:29:39.776Z,1.50
2019-03-12T08:32:28.062Z,1.50
2019-03-12T08:35:12.917Z,1.67
2019-03-12T08:37:54.819Z,2.17
2019-03-12T08:40:52.726Z,2.23
2019-03-12T08:43:44.918Z,2.23
2019-03-12T08:46:34.197Z,2.00
2019-03-12T08:49:25.506Z,2.33
2019-03-12T08:52:16.218Z,2.40
2019-03-12T08:55:09.913Z,2.63
2019-03-12T08:57:59.427Z,3.00
2019-03-12T09:00:41.113Z,2.83
2019-03-12T09:03:30.533Z,2.77
2019-03-12T09:06:28.240Z,2.63
2019-03-12T09:09:12.738Z,2.67
2019-03-12T09:11:58.211Z,2.43
2019-03-12T09:14:44.381Z,2.77
2019-03-12T09:17:33.181Z,3.23
2019-03-12T09:20:12.898Z,3.07
2019-03-12T09:22:57.785Z,3.10
2019-03-12T09:25:51.822Z,3.23
2019-03-12T09:28:41.507Z,3.27
2019-03-12T09:31:39.084Z,3.90
2019-03-12T09:34:32.957Z,3.30
2019-03-12T09:37:16.409Z,3.60
2019-03-12T09:39:59.326Z,3.30
2019-03-12T09:43:09.248Z,3.27
2019-03-12T09:45:51.379Z,3.33
2019-03-12T09:48:40.460Z,3.60
2019-03-12T09:51:23.837Z,3.53
2019-03-12T09:54:09.945Z,3.30
2019-03-12T09:56:59.404Z,3.33
2019-03-12T09:59:52.728Z,3.33
2019-03-12T10:02:46.641Z,3.40
2019-03-12T10:05:37.135Z,2.90
2019-03-12T10:08:36.846Z,3.77
2019-03-12T10:11:25.942Z,2.97
2019-03-12T10:14:32.050Z,2.80
2019-03-12T10:17:40.674Z,3.40
2019-03-12T10:20:25.126Z,4.73
2019-03-12T10:23:07.852Z,4.47
2019-03-12T10:25:56.816Z,4.27
2019-03-12T10:28:45.397Z,3.40
2019-03-12T10:31:40.462Z,3.40
2019-03-12T10:34:29.874Z,4.00
2019-03-12T10:37:26.321Z,4.23
2019-03-12T10:40:07.261Z,5.20
2019-03-12T10:43:04.007Z,4.90
2019-03-12T10:45:40.742Z,4.43
2019-03-12T10:48:13.433Z,3.87
2019-03-12T10:50:45.075Z,3.73
2019-03-12T10:53:17.045Z,3.73
2019-03-12T10:55:48.490Z,3.43
2019-03-12T10:58:20.254Z,3.50
2019-03-12T11:00:51.592Z,3.23
2019-03-12T11:03:23.334Z,3.60
2019-03-12T11:05:55.320Z,4.00
2019-03-12T11:08:27.505Z,3.60
2019-03-12T11:10:59.884Z,3.50
2019-03-12T11:13:30.890Z,3.90
2019-03-12T11:16:03.069Z,3.60
2019-03-12T11:18:35.033Z,3.30
2019-03-12T11:21:06.471Z,3.57
2019-03-12T11:23:38.098Z,3.37
2019-03-12T11:26:09.475Z,3.00
2019-03-12T11:28:41.095Z,3.40
2019-03-12T11:31:12.383Z,3.33
2019-03-12T11:33:44.186Z,3.73
2019-03-12T11:36:15.861Z,4.43
2019-03-12T11:38:47.755Z,3.17
2019-03-12T11:41:19.225Z,2.93
2019-03-12T11:43:51.681Z,3.03
2019-03-12T11:46:23.310Z,3.20
2019-03-12T11:48:55.109Z,2.93
2019-03-12T11:51:26.429Z,2.47
2019-03-12T11:53:57.819Z,2.50
2019-03-12T11:56:30.045Z,2.77
2019-03-12T11:59:01.040Z,2.90
2019-03-12T12:01:33.358Z,2.67
2019-03-12T12:04:05.417Z,3.30
2019-03-12T12:06:36.508Z,3.00
2019-03-12T12:09:09.377Z,2.50
2019-03-12T12:11:41.782Z,2.97
2019-03-12T12:14:13.832Z,2.77
2019-03-12T12:16:45.838Z,2.70
2019-03-12T12:19:16.933Z,2.53
2019-03-12T12:21:48.640Z,2.27
2019-03-12T12:24:20.509Z,3.27
2019-03-12T12:26:52.459Z,2.63
2019-03-12T12:29:24.079Z,1.80
2019-03-12T12:31:56.129Z,2.40
2019-03-12T12:34:27.736Z,2.40
2019-03-12T12:36:59.485Z,1.97
2019-03-12T12:39:31.396Z,2.47
2019-03-12T12:42:02.998Z,1.60
2019-03-12T12:44:34.799Z,2.00
2019-03-12T12:47:06.393Z,2.07
2019-03-12T12:49:38.227Z,2.07
2019-03-12T12:52:09.702Z,1.83
2019-03-12T12:54:41.036Z,2.10
2019-03-12T12:57:12.602Z,2.30
2019-03-12T12:59:44.804Z,1.97
2019-03-12T13:02:16.543Z,1.67
2019-03-12T13:04:48.208Z,1.93
2019-03-12T13:07:20.115Z,2.00
2019-03-12T13:09:52.012Z,2.17
2019-03-12T13:12:23.578Z,1.50
2019-03-12T13:14:55.113Z,2.47
2019-03-12T13:17:26.453Z,2.00
2019-03-12T13:19:58.345Z,1.77
2019-03-12T13:22:30.188Z,2.50
2019-03-12T13:25:02.160Z,1.90
2019-03-12T13:27:42.226Z,1.93
2019-03-12T13:30:07.623Z,1.73
2019-03-12T13:32:39.328Z,1.90
2019-03-12T13:35:11.471Z,2.00
2019-03-12T13:37:42.984Z,2.17
2019-03-12T13:40:16.347Z,2.60
2019-03-12T13:42:48.306Z,2.50
2019-03-12T13:45:20.634Z,2.10
2019-03-12T13:47:51.937Z,2.67
2019-03-12T13:50:23.670Z,1.80
2019-03-12T13:52:55.651Z,2.00
2019-03-12T13:55:27.351Z,1.80
2019-03-12T13:57:59.167Z,2.17
2019-03-12T14:00:33.379Z,2.00
2019-03-12T14:03:04.524Z,1.83
2019-03-12T14:05:36.811Z,2.10
2019-03-12T14:08:08.679Z,1.80
2019-03-12T14:10:40.661Z,2.20
2019-03-12T14:13:12.616Z,2.30
2019-03-12T14:15:44.385Z,2.20
2019-03-12T14:18:16.401Z,1.85
2019-03-12T14:20:54.559Z,2.15
2019-03-12T14:23:36.299Z,2.25
2019-03-12T14:26:08.082Z,1.40
2019-03-12T14:28:41.061Z,1.77
2019-03-12T14:31:12.906Z,2.10
2019-03-12T14:33:45.211Z,1.90
2019-03-12T14:36:17.335Z,2.00
2019-03-12T14:38:49.337Z,2.37
2019-03-12T14:41:21.626Z,1.77
2019-03-12T14:43:53.313Z,1.70
2019-03-12T14:46:25.407Z,1.70
2019-03-12T14:49:03.021Z,2.05
2019-03-12T14:52:23.484Z,2.08
2019-03-12T14:54:55.489Z,1.77
2019-03-12T14:57:26.847Z,1.60
2019-03-12T14:59:58.572Z,2.05
2019-03-12T15:02:30.811Z,1.50
2019-03-12T15:05:02.782Z,2.00
2019-03-12T15:07:34.977Z,2.02
2019-03-12T15:10:07.221Z,1.95
2019-03-12T15:12:39.326Z,1.67
2019-03-12T15:15:11.031Z,1.70
2019-03-12T15:17:43.041Z,2.05
2019-03-12T15:20:14.955Z,2.85
2019-03-12T15:22:47.057Z,2.15
2019-03-12T15:25:18.414Z,1.60
2019-03-12T15:27:50.041Z,1.85
2019-03-12T15:30:21.529Z,2.00
2019-03-12T15:32:53.166Z,1.77
2019-03-12T15:35:25.042Z,1.72
2019-03-12T15:37:56.710Z,1.57
2019-03-12T15:40:28.275Z,1.35
2019-03-12T15:43:00.040Z,0.95
2019-03-12T15:45:32.791Z,1.22
2019-03-12T15:48:04.705Z,1.15
2019-03-12T15:50:36.517Z,1.57
2019-03-12T15:53:08.153Z,2.12
2019-03-12T15:55:39.757Z,1.50
2019-03-12T15:58:11.104Z,1.82
2019-03-12T16:00:43.124Z,1.65
2019-03-12T16:03:15.981Z,1.60
2019-03-12T16:05:47.900Z,1.80
2019-03-12T16:08:19.732Z,1.40
2019-03-12T16:10:57.997Z,1.55
2019-03-12T16:13:25.259Z,1.82
2019-03-12T16:16:01.998Z,1.60
2019-03-12T16:18:33.621Z,1.77
2019-03-12T16:21:05.129Z,1.52
2019-03-12T16:23:36.995Z,1.75
2019-03-12T16:26:08.440Z,1.40
2019-03-12T16:28:40.302Z,1.65
2019-03-12T16:31:11.638Z,1.98
2019-03-12T16:33:43.515Z,1.40
2019-03-12T16:36:15.128Z,1.50
2019-03-12T16:38:46.414Z,1.60
2019-03-12T16:41:18.099Z,1.70
2019-03-12T16:43:50.504Z,1.35
2019-03-12T16:46:22.312Z,1.80
2019-03-12T16:48:53.602Z,1.42
2019-03-12T16:51:25.550Z,1.62
2019-03-12T16:53:57.460Z,1.62
2019-03-12T16:56:29.415Z,1.30
2019-03-12T16:59:01.344Z,2.17
2019-03-12T17:01:34.590Z,1.80
2019-03-12T17:04:06.543Z,2.25
2019-03-12T17:06:38.606Z,1.80
2019-03-12T17:09:10.976Z,1.77
2019-03-12T17:11:42.566Z,1.62
2019-03-12T17:14:16.029Z,1.82
2019-03-12T17:16:48.101Z,1.60
2019-03-12T17:19:19.608Z,1.60
2019-03-12T17:21:51.397Z,1.32
2019-03-12T17:24:23.047Z,1.70
2019-03-12T17:26:54.683Z,1.70
2019-03-12T17:29:25.737Z,2.17
2019-03-12T17:31:56.701Z,1.57
2019-03-12T17:34:35.817Z,1.62
2019-03-12T17:37:01.492Z,2.00
2019-03-12T17:39:33.316Z,1.77
2019-03-12T17:42:04.896Z,1.90
2019-03-12T17:44:36.675Z,1.65
2019-03-12T17:47:08.304Z,1.90
2019-03-12T17:49:39.697Z,1.60
2019-03-12T17:52:11.565Z,1.95
2019-03-12T17:54:43.461Z,1.82
2019-03-12T17:57:14.767Z,1.80
2019-03-12T17:59:46.699Z,1.72
2019-03-12T18:02:18.265Z,1.62
2019-03-12T18:04:49.800Z,1.65
2019-03-12T18:07:22.008Z,1.67
2019-03-12T18:09:53.854Z,1.70
2019-03-12T18:12:25.870Z,1.60
2019-03-12T18:14:57.686Z,2.08
2019-03-12T18:17:29.445Z,1.80
2019-03-12T18:20:01.371Z,1.60
2019-03-12T18:22:33.397Z,1.75
2019-03-12T18:25:05.296Z,1.95
2019-03-12T18:27:36.630Z,1.45
2019-03-12T18:30:11.175Z,1.70
2019-03-12T18:32:42.930Z,1.40
2019-03-12T18:35:14.675Z,1.35
2019-03-12T18:37:46.424Z,1.50
2019-03-12T18:40:19.548Z,1.70
2019-03-12T18:42:51.426Z,1.65
2019-03-12T18:45:23.320Z,1.72
2019-03-12T18:47:54.683Z,1.45
2019-03-12T18:50:26.591Z,1.20
2019-03-12T18:52:58.251Z,1.47
2019-03-12T18:56:07.475Z,1.45
2019-03-12T18:58:39.438Z,1.50
2019-03-12T19:01:15.644Z,1.52
2019-03-12T19:03:47.216Z,1.45
2019-03-12T19:06:18.785Z,1.22
2019-03-12T19:08:50.411Z,1.45
2019-03-12T19:11:22.010Z,1.40
2019-03-12T19:13:53.675Z,1.35
2019-03-12T19:16:25.645Z,1.20
2019-03-12T19:18:57.031Z,1.52
2019-03-12T19:21:28.404Z,1.70
2019-03-12T19:24:01.369Z,1.70
2019-03-12T19:26:32.929Z,1.32
2019-03-12T19:29:05.040Z,1.55
2019-03-12T19:31:48.457Z,1.32
2019-03-12T19:34:31.304Z,1.27
2019-03-12T19:37:03.767Z,1.30
2019-03-12T19:39:35.685Z,1.17
2019-03-12T19:42:07.640Z,1.20
2019-03-12T19:44:39.293Z,1.12
2019-03-12T19:47:11.347Z,1.40
2019-03-12T19:49:43.243Z,1.07
2019-03-12T19:52:15.219Z,1.30
2019-03-12T19:54:47.276Z,1.15
2019-03-12T19:57:18.924Z,1.40
2019-03-12T19:59:51.248Z,1.27
2019-03-12T20:02:23.137Z,1.20
2019-03-12T20:04:54.709Z,0.90
2019-03-12T20:07:26.316Z,0.93
2019-03-12T20:11:09.483Z,1.00
2019-03-12T20:14:40.135Z,1.00
2019-03-12T20:18:01.215Z,1.27
2019-03-12T20:21:39.780Z,1.10
2019-03-12T20:25:04.555Z,0.80
2019-03-12T20:28:40.699Z,0.90
2019-03-12T20:31:49.558Z,1.30
2019-03-12T20:35:23.597Z,1.10
2019-03-12T20:38:50.613Z,0.90
2019-03-12T20:42:22.824Z,1.07
2019-03-12T20:45:45.283Z,1.10
2019-03-12T20:49:11.948Z,1.00
2019-03-12T20:52:48.875Z,1.07
2019-03-12T20:56:14.511Z,1.35
2019-03-12T20:59:58.984Z,1.20
2019-03-12T21:03:28.023Z,1.02
2019-03-12T21:06:45.024Z,1.00
2019-03-12T21:10:13.265Z,1.00
2019-03-12T21:13:50.657Z,1.05
2019-03-12T21:17:21.730Z,0.95
2019-03-12T21:20:49.695Z,0.80
2019-03-12T21:24:20.067Z,1.22
2019-03-12T21:27:17.592Z,1.02
2019-03-12T21:29:48.220Z,1.20
2019-03-12T21:32:20.217Z,0.93
2019-03-12T21:34:52.245Z,1.00
2019-03-12T21:37:23.652Z,0.95
2019-03-12T21:39:56.392Z,0.90
2019-03-12T21:42:28.491Z,0.80
2019-03-12T21:45:00.495Z,1.00
2019-03-12T21:47:32.654Z,1.15
2019-03-12T21:50:04.326Z,0.98
2019-03-12T21:52:35.658Z,1.05
2019-03-12T21:55:08.930Z,1.20
2019-03-12T21:57:40.295Z,1.10
2019-03-12T22:00:14.890Z,1.10
2019-03-12T22:02:47.504Z,0.80
2019-03-12T22:05:19.251Z,1.00
2019-03-12T22:07:50.877Z,1.02
2019-03-12T22:10:22.419Z,1.00
2019-03-12T22:12:54.073Z,0.80
2019-03-12T22:15:25.673Z,1.10
2019-03-12T22:17:56.774Z,1.35
2019-03-12T22:20:28.522Z,1.20
2019-03-12T22:23:04.589Z,0.95
2019-03-12T22:25:36.344Z,1.30
2019-03-12T22:28:08.220Z,0.93
2019-03-12T22:30:39.514Z,1.30
2019-03-12T22:33:11.675Z,1.22
2019-03-12T22:35:43.527Z,1.27
2019-03-12T22:38:15.807Z,1.00
2019-03-12T22:40:47.598Z,1.17
2019-03-12T22:43:18.984Z,1.17
2019-03-12T22:45:50.508Z,1.32
2019-03-12T22:48:21.515Z,1.02
2019-03-12T22:50:53.041Z,1.07
2019-03-12T22:53:24.859Z,0.93
2019-03-12T22:55:56.194Z,0.93
2019-03-12T22:58:28.028Z,1.15
2019-03-12T23:01:16.793Z,1.10
2019-03-12T23:04:06.493Z,1.07
2019-03-12T23:06:56.282Z,1.00
2019-03-12T23:09:45.217Z,1.00
2019-03-12T23:12:18.671Z,1.37
2019-03-12T23:14:51.869Z,0.90
2019-03-12T23:17:23.951Z,1.20
2019-03-12T23:19:55.937Z,1.20
2019-03-12T23:22:27.972Z,1.10
2019-03-12T23:25:00.124Z,1.10
2019-03-12T23:27:32.316Z,1.37
2019-03-12T23:30:03.922Z,1.20
2019-03-12T23:32:37.497Z,1.50
2019-03-12T23:35:08.868Z,1.32
2019-03-12T23:37:40.465Z,1.20
2019-03-12T23:40:12.528Z,1.70
2019-03-12T23:42:44.725Z,1.42
2019-03-12T23:45:17.656Z,1.27
2019-03-12T23:47:50.534Z,0.90
2019-03-12T23:50:23.696Z,1.27
2019-03-12T23:52:55.866Z,1.32
2019-03-12T23:55:27.651Z,1.32
2019-03-12T23:57:59.462Z,1.00
